createdAt,value
2019-01-11T00:00:28.881Z,0
2019-01-11T00:01:41.022Z,0
2019-01-11T00:02:53.306Z,0
2019-01-11T00:04:05.483Z,0
2019-01-11T00:05:17.601Z,0
2019-01-11T00:06:29.795Z,0
2019-01-11T00:07:41.979Z,0
2019-01-11T00:08:54.274Z,0
2019-01-11T00:10:06.397Z,0
2019-01-11T00:11:18.616Z,0
2019-01-11T00:12:30.839Z,0
2019-01-11T00:13:42.954Z,0
2019-01-11T00:14:55.242Z,0
2019-01-11T00:16:07.417Z,0
2019-01-11T00:17:19.542Z,0
2019-01-11T00:18:31.809Z,0
2019-01-11T00:19:43.926Z,0
2019-01-11T00:20:56.116Z,0
2019-01-11T00:22:08.321Z,0
2019-01-11T00:23:20.580Z,0
2019-01-11T00:24:32.762Z,0
2019-01-11T00:25:45.014Z,0
2019-01-11T00:26:57.170Z,0
2019-01-11T00:28:09.363Z,0
2019-01-11T00:29:21.477Z,0
2019-01-11T00:30:33.753Z,0
2019-01-11T00:31:45.876Z,0
2019-01-11T00:32:58.243Z,0
2019-01-11T00:34:10.421Z,0
2019-01-11T00:35:22.450Z,0
2019-01-11T00:36:34.635Z,0
2019-01-11T00:37:46.832Z,0
2019-01-11T00:38:59.099Z,0
2019-01-11T00:40:11.228Z,0
2019-01-11T00:41:23.503Z,0
2019-01-11T00:42:35.630Z,0
2019-01-11T00:43:49.350Z,0
2019-01-11T00:45:00.000Z,0
2019-01-11T00:46:12.265Z,0
2019-01-11T00:47:24.558Z,0
2019-01-11T00:48:36.718Z,0
2019-01-11T00:49:48.789Z,0
2019-01-11T00:51:01.059Z,0
2019-01-11T00:52:13.250Z,0
2019-01-11T00:53:25.453Z,0
2019-01-11T00:54:37.546Z,0
2019-01-11T00:55:49.817Z,0
2019-01-11T00:57:01.935Z,0
2019-01-11T00:58:14.129Z,0
2019-01-11T00:59:26.403Z,0
2019-01-11T01:00:38.539Z,0
2019-01-11T01:01:50.797Z,0
2019-01-11T01:03:02.905Z,0
2019-01-11T01:04:15.184Z,0
2019-01-11T01:05:27.304Z,0
2019-01-11T01:06:39.582Z,0
2019-01-11T01:07:51.681Z,0
2019-01-11T01:09:03.870Z,0
2019-01-11T01:10:16.089Z,0
2019-01-11T01:11:28.267Z,0
2019-01-11T01:12:40.497Z,0
2019-01-11T01:13:52.650Z,0
2019-01-11T01:15:04.835Z,0
2019-01-11T01:16:17.036Z,0
2019-01-11T01:17:29.373Z,0
2019-01-11T01:18:41.440Z,0
2019-01-11T01:19:53.630Z,0
2019-01-11T01:21:05.851Z,0
2019-01-11T01:22:18.005Z,0
2019-01-11T01:23:30.276Z,0
2019-01-11T01:24:42.403Z,0
2019-01-11T01:25:54.623Z,0
2019-01-11T01:27:07.017Z,0
2019-01-11T01:28:18.983Z,0
2019-01-11T01:29:31.352Z,0
2019-01-11T01:30:43.361Z,0
2019-01-11T01:31:55.668Z,0
2019-01-11T01:33:07.829Z,0
2019-01-11T01:34:19.953Z,0
2019-01-11T01:35:32.369Z,0
2019-01-11T01:36:44.329Z,0
2019-01-11T01:37:56.528Z,0
2019-01-11T01:39:08.841Z,0
2019-01-11T01:40:20.917Z,0
2019-01-11T01:41:33.119Z,0
2019-01-11T01:42:45.457Z,0
2019-01-11T01:43:57.574Z,0
2019-01-11T01:45:09.784Z,0
2019-01-11T01:46:21.900Z,0
2019-01-11T01:47:34.089Z,0
2019-01-11T01:48:46.366Z,0
2019-01-11T01:49:58.470Z,0
2019-01-11T01:51:10.748Z,0
2019-01-11T01:52:22.874Z,0
2019-01-11T01:53:35.058Z,0
2019-01-11T01:54:47.281Z,0
2019-01-11T01:55:59.541Z,0
2019-01-11T01:57:11.671Z,0
2019-01-11T01:58:23.919Z,0
2019-01-11T01:59:36.014Z,0
2019-01-11T02:00:48.237Z,0
2019-01-11T02:02:00.410Z,0
2019-01-11T02:03:12.601Z,0
2019-01-11T02:04:24.899Z,0
2019-01-11T02:05:36.989Z,0
2019-01-11T02:06:49.180Z,0
2019-01-11T02:08:01.528Z,0
2019-01-11T02:09:13.575Z,0
2019-01-11T02:10:25.776Z,0
2019-01-11T02:11:38.057Z,0
2019-01-11T02:12:50.153Z,0
2019-01-11T02:14:02.381Z,0
2019-01-11T02:15:14.827Z,0
2019-01-11T02:16:26.763Z,0
2019-01-11T02:17:39.003Z,0
2019-01-11T02:18:51.220Z,0
2019-01-11T02:20:04.224Z,0
2019-01-11T02:21:15.511Z,0
2019-01-11T02:22:27.703Z,0
2019-01-11T02:23:39.992Z,0
2019-01-11T02:24:52.089Z,0
2019-01-11T02:26:04.363Z,0
2019-01-11T02:27:16.654Z,0
2019-01-11T02:28:28.758Z,0
2019-01-11T02:29:40.972Z,0
2019-01-11T02:30:53.155Z,0
2019-01-11T02:32:05.283Z,0
2019-01-11T02:33:17.527Z,0
2019-01-11T02:34:29.652Z,0
2019-01-11T02:35:41.849Z,0
2019-01-11T02:36:54.185Z,0
2019-01-11T02:38:06.233Z,0
2019-01-11T02:39:18.602Z,0
2019-01-11T02:40:30.697Z,0
2019-01-11T02:41:42.823Z,0
2019-01-11T02:42:55.062Z,0
2019-01-11T02:44:07.271Z,0
2019-01-11T02:45:19.388Z,0
2019-01-11T02:46:31.638Z,0
2019-01-11T02:47:43.889Z,0
2019-01-11T02:48:56.047Z,0
2019-01-11T02:50:08.489Z,0
2019-01-11T02:51:20.654Z,0
2019-01-11T02:52:32.618Z,0
2019-01-11T02:53:44.812Z,0
2019-01-11T02:54:57.011Z,0
2019-01-11T02:56:09.152Z,0
2019-01-11T02:57:21.348Z,0
2019-01-11T02:58:33.526Z,0
2019-01-11T02:59:45.844Z,0
2019-01-11T03:00:57.982Z,0
2019-01-11T03:02:10.217Z,0
2019-01-11T03:03:22.306Z,0
2019-01-11T03:04:34.605Z,0
2019-01-11T03:05:46.768Z,0
2019-01-11T03:06:58.959Z,0
2019-01-11T03:08:11.229Z,0
2019-01-11T03:09:23.376Z,0
2019-01-11T03:10:35.571Z,0
2019-01-11T03:11:47.759Z,0
2019-01-11T03:12:59.944Z,0
2019-01-11T03:14:12.162Z,0
2019-01-11T03:15:24.431Z,0
2019-01-11T03:16:36.528Z,0
2019-01-11T03:17:48.652Z,0
2019-01-11T03:19:00.929Z,0
2019-01-11T03:20:13.203Z,0
2019-01-11T03:21:25.229Z,0
2019-01-11T03:22:37.425Z,0
2019-01-11T03:23:49.847Z,0
2019-01-11T03:25:01.907Z,0
2019-01-11T03:26:14.003Z,0
2019-01-11T03:27:26.437Z,0
2019-01-11T03:28:38.519Z,0
2019-01-11T03:29:50.633Z,0
2019-01-11T03:31:02.862Z,0
2019-01-11T03:32:15.274Z,0
2019-01-11T03:33:27.375Z,0
2019-01-11T03:34:39.375Z,0
2019-01-11T03:35:51.579Z,0
2019-01-11T03:37:03.771Z,0
2019-01-11T03:38:16.105Z,0
2019-01-11T03:39:28.339Z,0
2019-01-11T03:40:40.424Z,0
2019-01-11T03:41:52.638Z,0
2019-01-11T03:43:07.430Z,0
2019-01-11T03:44:17.132Z,0
2019-01-11T03:45:29.318Z,0
2019-01-11T03:46:41.330Z,0
2019-01-11T03:47:53.530Z,0
2019-01-11T03:49:05.808Z,0
2019-01-11T03:50:17.925Z,0
2019-01-11T03:51:30.295Z,0
2019-01-11T03:52:42.435Z,0
2019-01-11T03:53:54.505Z,0
2019-01-11T03:55:06.732Z,0
2019-01-11T03:56:18.916Z,0
2019-01-11T03:57:31.134Z,0
2019-01-11T03:58:43.289Z,0
2019-01-11T03:59:56.859Z,0
2019-01-11T04:01:07.683Z,0
2019-01-11T04:02:19.878Z,0
2019-01-11T04:03:32.246Z,0
2019-01-11T04:04:44.295Z,0
2019-01-11T04:05:56.470Z,0
2019-01-11T04:07:08.731Z,0
2019-01-11T04:08:21.093Z,0
2019-01-11T04:09:33.140Z,0
2019-01-11T04:10:45.337Z,0
2019-01-11T04:11:57.438Z,0
2019-01-11T04:13:09.645Z,0
2019-01-11T04:14:21.908Z,0
2019-01-11T04:15:34.023Z,0
2019-01-11T04:16:46.368Z,0
2019-01-11T04:17:58.487Z,0
2019-01-11T04:19:10.612Z,0
2019-01-11T04:20:22.837Z,0
2019-01-11T04:21:35.005Z,0
2019-01-11T04:22:47.274Z,0
2019-01-11T04:23:59.473Z,0
2019-01-11T04:25:11.693Z,0
2019-01-11T04:26:23.873Z,0
2019-01-11T04:27:36.079Z,0
2019-01-11T04:28:48.179Z,0
2019-01-11T04:30:00.451Z,0
2019-01-11T04:31:12.580Z,0
2019-01-11T04:32:24.769Z,0
2019-01-11T04:33:36.983Z,0
2019-01-11T04:34:49.224Z,0
2019-01-11T04:36:01.559Z,0
2019-01-11T04:37:13.617Z,0
2019-01-11T04:38:25.829Z,0
2019-01-11T04:39:38.100Z,0
2019-01-11T04:40:50.364Z,0
2019-01-11T04:42:02.359Z,0
2019-01-11T04:43:14.539Z,0
2019-01-11T04:44:26.801Z,0
2019-01-11T04:45:38.917Z,0
2019-01-11T04:46:51.105Z,0
2019-01-11T04:48:03.319Z,0
2019-01-11T04:49:15.577Z,0
2019-01-11T04:50:27.824Z,0
2019-01-11T04:51:39.996Z,0
2019-01-11T04:52:52.094Z,0
2019-01-11T04:54:04.403Z,0
2019-01-11T04:55:16.559Z,0
2019-01-11T04:56:28.830Z,0
2019-01-11T04:57:40.977Z,0
2019-01-11T04:58:53.148Z,0
2019-01-11T05:00:05.367Z,0
2019-01-11T05:01:17.582Z,0
2019-01-11T05:02:29.752Z,0
2019-01-11T05:03:41.864Z,0
2019-01-11T05:04:54.063Z,0
2019-01-11T05:06:06.320Z,0
2019-01-11T05:07:18.510Z,0
2019-01-11T05:08:30.631Z,0
2019-01-11T05:09:42.905Z,0
2019-01-11T05:10:55.219Z,0
2019-01-11T05:12:07.350Z,0
2019-01-11T05:13:19.479Z,0
2019-01-11T05:14:31.607Z,0
2019-01-11T05:15:43.983Z,0
2019-01-11T05:16:56.079Z,0
2019-01-11T05:18:08.382Z,0
2019-01-11T05:19:20.389Z,0
2019-01-11T05:20:32.595Z,0
2019-01-11T05:21:44.849Z,0
2019-01-11T05:22:56.979Z,0
2019-01-11T05:24:09.250Z,0
2019-01-11T05:25:21.484Z,0
2019-01-11T05:26:33.572Z,0
2019-01-11T05:27:45.835Z,0
2019-01-11T05:28:58.036Z,0
2019-01-11T05:30:10.171Z,0
2019-01-11T05:31:22.367Z,0
2019-01-11T05:32:34.547Z,0
2019-01-11T05:33:46.738Z,0
2019-01-11T05:34:58.953Z,0
2019-01-11T05:36:11.215Z,0
2019-01-11T05:37:23.397Z,0
2019-01-11T05:38:35.660Z,0
2019-01-11T05:39:47.876Z,0
2019-01-11T05:40:59.982Z,0
2019-01-11T05:42:12.192Z,0
2019-01-11T05:43:24.398Z,0
2019-01-11T05:44:36.568Z,0
2019-01-11T05:45:48.693Z,0
2019-01-11T05:47:00.907Z,0
2019-01-11T05:48:13.083Z,0
2019-01-11T05:49:25.309Z,0
2019-01-11T05:50:37.567Z,0
2019-01-11T05:51:49.697Z,0
2019-01-11T05:53:02.028Z,0
2019-01-11T05:54:14.066Z,0
2019-01-11T05:55:26.442Z,0
2019-01-11T05:56:38.551Z,0
2019-01-11T05:57:50.737Z,0
2019-01-11T05:59:02.913Z,0
2019-01-11T06:00:15.137Z,0
2019-01-11T06:01:27.246Z,0
2019-01-11T06:02:39.503Z,0
2019-01-11T06:03:51.716Z,0
2019-01-11T06:05:03.913Z,0
2019-01-11T06:06:16.099Z,0
2019-01-11T06:07:28.326Z,0
2019-01-11T06:08:40.428Z,0
2019-01-11T06:09:52.703Z,0
2019-01-11T06:11:04.794Z,0
2019-01-11T06:12:17.105Z,0
2019-01-11T06:13:29.191Z,0
2019-01-11T06:14:41.423Z,0
2019-01-11T06:15:53.573Z,0
2019-01-11T06:17:05.787Z,0
2019-01-11T06:18:18.040Z,0
2019-01-11T06:19:30.162Z,0
2019-01-11T06:20:42.363Z,0
2019-01-11T06:21:54.627Z,0
2019-01-11T06:23:06.848Z,0
2019-01-11T06:24:18.948Z,0
2019-01-11T06:25:31.382Z,0
2019-01-11T06:26:43.412Z,0
2019-01-11T06:27:55.638Z,0
2019-01-11T06:29:07.834Z,0
2019-01-11T06:30:19.928Z,0
2019-01-11T06:31:32.128Z,0
2019-01-11T06:32:44.326Z,0
2019-01-11T06:33:56.605Z,0
2019-01-11T06:35:08.776Z,0
2019-01-11T06:36:20.914Z,0
2019-01-11T06:37:33.171Z,0
2019-01-11T06:38:45.290Z,0
2019-01-11T06:39:59.113Z,0
2019-01-11T06:41:09.877Z,0
2019-01-11T06:42:21.942Z,0
2019-01-11T06:43:34.071Z,0
2019-01-11T06:44:46.442Z,0
2019-01-11T06:45:58.547Z,0
2019-01-11T06:47:10.732Z,0
2019-01-11T06:48:22.936Z,0
2019-01-11T06:49:35.143Z,0
2019-01-11T06:50:47.268Z,0
2019-01-11T06:51:59.646Z,0
2019-01-11T06:53:11.719Z,0
2019-01-11T06:54:23.902Z,0
2019-01-11T06:55:36.177Z,0
2019-01-11T06:56:48.312Z,0
2019-01-11T06:58:00.424Z,0
2019-01-11T06:59:12.708Z,0
2019-01-11T07:00:24.966Z,0
2019-01-11T07:01:37.009Z,0
2019-01-11T07:02:49.200Z,0
2019-01-11T07:04:01.574Z,0
2019-01-11T07:05:13.680Z,0
2019-01-11T07:06:25.790Z,0
2019-01-11T07:07:41.557Z,0
2019-01-11T07:08:50.267Z,0
2019-01-11T07:10:02.495Z,0
2019-01-11T07:11:14.639Z,0
2019-01-11T07:12:26.862Z,0
2019-01-11T07:13:38.976Z,0
2019-01-11T07:14:51.247Z,0
2019-01-11T07:16:03.457Z,0
2019-01-11T07:17:15.624Z,0
2019-01-11T07:18:27.838Z,0
2019-01-11T07:19:40.024Z,0
2019-01-11T07:20:52.229Z,0
2019-01-11T07:22:04.336Z,0
2019-01-11T07:23:16.837Z,0
2019-01-11T07:24:28.744Z,0
2019-01-11T07:25:41.022Z,0
2019-01-11T07:26:53.114Z,0
2019-01-11T07:28:05.478Z,0
2019-01-11T07:29:17.563Z,0
2019-01-11T07:30:29.733Z,0
2019-01-11T07:31:41.922Z,0
2019-01-11T07:32:54.105Z,0
2019-01-11T07:34:06.306Z,0
2019-01-11T07:35:18.589Z,0
2019-01-11T07:36:30.685Z,0
2019-01-11T07:37:42.882Z,0
2019-01-11T07:38:55.147Z,0
2019-01-11T07:40:07.352Z,0
2019-01-11T07:41:19.543Z,0
2019-01-11T07:42:31.658Z,0
2019-01-11T07:43:43.867Z,0
2019-01-11T07:44:56.068Z,0
2019-01-11T07:46:08.323Z,0
2019-01-11T07:47:20.437Z,0
2019-01-11T07:48:32.641Z,0
2019-01-11T07:49:44.914Z,0
2019-01-11T07:50:57.152Z,0
2019-01-11T07:52:09.213Z,0
2019-01-11T07:53:21.502Z,0
2019-01-11T07:54:33.683Z,0
2019-01-11T07:55:45.810Z,0
2019-01-11T07:56:58.089Z,0
2019-01-11T07:58:10.211Z,0
2019-01-11T07:59:22.480Z,0
2019-01-11T08:00:34.685Z,0
2019-01-11T08:01:46.876Z,0
2019-01-11T08:02:58.987Z,0
2019-01-11T08:04:11.362Z,0
2019-01-11T08:05:23.466Z,0
2019-01-11T08:06:35.679Z,0
2019-01-11T08:07:47.847Z,0
2019-01-11T08:09:00.064Z,0
2019-01-11T08:10:12.169Z,5
2019-01-11T08:11:24.365Z,5
2019-01-11T08:12:36.687Z,5
2019-01-11T08:13:48.739Z,5
2019-01-11T08:15:01.117Z,5
2019-01-11T08:16:13.377Z,5
2019-01-11T08:17:25.348Z,5
2019-01-11T08:18:37.606Z,5
2019-01-11T08:19:49.761Z,5
2019-01-11T08:21:02.016Z,5
2019-01-11T08:22:14.147Z,5
2019-01-11T08:23:26.317Z,5
2019-01-11T08:24:38.514Z,5
2019-01-11T08:25:50.883Z,5
2019-01-11T08:27:02.996Z,5
2019-01-11T08:28:15.217Z,11
2019-01-11T08:29:27.301Z,11
2019-01-11T08:30:39.583Z,11
2019-01-11T08:31:51.694Z,11
2019-01-11T08:33:04.148Z,11
2019-01-11T08:34:16.164Z,11
2019-01-11T08:35:28.307Z,11
2019-01-11T08:36:40.509Z,11
2019-01-11T08:37:52.738Z,11
2019-01-11T08:39:04.868Z,11
2019-01-11T08:40:17.079Z,11
2019-01-11T08:41:29.260Z,11
2019-01-11T08:42:41.541Z,11
2019-01-11T08:43:53.648Z,11
2019-01-11T08:45:05.848Z,11
2019-01-11T08:46:18.078Z,11
2019-01-11T08:47:30.325Z,11
2019-01-11T08:48:42.438Z,11
2019-01-11T08:49:54.625Z,11
2019-01-11T08:51:06.901Z,11
2019-01-11T08:52:19.088Z,16
2019-01-11T08:53:31.444Z,16
2019-01-11T08:54:43.517Z,16
2019-01-11T08:55:55.710Z,16
2019-01-11T08:57:08.066Z,11
2019-01-11T08:58:20.001Z,11
2019-01-11T08:59:32.202Z,16
2019-01-11T09:00:44.465Z,11
2019-01-11T09:01:56.595Z,16
2019-01-11T09:03:08.867Z,16
2019-01-11T09:04:21.094Z,16
2019-01-11T09:05:33.299Z,16
2019-01-11T09:06:45.393Z,16
2019-01-11T09:07:57.749Z,16
2019-01-11T09:09:09.766Z,16
2019-01-11T09:10:22.089Z,16
2019-01-11T09:11:34.295Z,22
2019-01-11T09:12:46.359Z,16
2019-01-11T09:13:58.638Z,16
2019-01-11T09:15:10.748Z,16
2019-01-11T09:16:23.111Z,16
2019-01-11T09:17:35.232Z,16
2019-01-11T09:18:47.448Z,16
2019-01-11T09:19:59.603Z,16
2019-01-11T09:21:11.815Z,11
2019-01-11T09:22:23.968Z,11
2019-01-11T09:23:36.114Z,11
2019-01-11T09:24:48.318Z,16
2019-01-11T09:26:00.505Z,11
2019-01-11T09:27:12.704Z,16
2019-01-11T09:28:25.073Z,16
2019-01-11T09:29:37.169Z,22
2019-01-11T09:30:49.511Z,28
2019-01-11T09:32:01.507Z,28
2019-01-11T09:33:13.695Z,33
2019-01-11T09:34:25.959Z,33
2019-01-11T09:35:38.073Z,39
2019-01-11T09:36:50.279Z,50
2019-01-11T09:38:02.509Z,45
2019-01-11T09:39:14.738Z,45
2019-01-11T09:40:27.020Z,50
2019-01-11T09:41:39.151Z,39
2019-01-11T09:42:51.254Z,50
2019-01-11T09:44:03.524Z,50
2019-01-11T09:45:15.637Z,45
2019-01-11T09:46:28.019Z,45
2019-01-11T09:47:40.110Z,39
2019-01-11T09:48:52.231Z,33
2019-01-11T09:50:04.432Z,33
2019-01-11T09:51:16.625Z,28
2019-01-11T09:52:28.926Z,28
2019-01-11T09:53:41.119Z,22
2019-01-11T09:54:53.216Z,28
2019-01-11T09:56:05.400Z,28
2019-01-11T09:57:17.611Z,28
2019-01-11T09:58:29.819Z,28
2019-01-11T09:59:41.991Z,28
2019-01-11T10:00:54.280Z,28
2019-01-11T10:02:06.465Z,28
2019-01-11T10:03:18.655Z,22
2019-01-11T10:04:30.903Z,22
2019-01-11T10:05:42.973Z,22
2019-01-11T10:06:55.165Z,22
2019-01-11T10:08:07.382Z,22
2019-01-11T10:09:19.559Z,22
2019-01-11T10:10:31.822Z,16
2019-01-11T10:11:44.035Z,16
2019-01-11T10:12:56.143Z,22
2019-01-11T10:14:08.402Z,22
2019-01-11T10:15:20.853Z,28
2019-01-11T10:16:32.907Z,28
2019-01-11T10:17:44.932Z,33
2019-01-11T10:18:57.202Z,39
2019-01-11T10:20:09.323Z,45
2019-01-11T10:21:21.630Z,50
2019-01-11T10:22:33.779Z,56
2019-01-11T10:23:47.251Z,61
2019-01-11T10:24:58.487Z,61
2019-01-11T10:26:10.409Z,56
2019-01-11T10:27:22.598Z,56
2019-01-11T10:28:34.932Z,45
2019-01-11T10:29:47.050Z,45
2019-01-11T10:30:59.116Z,45
2019-01-11T10:32:11.347Z,39
2019-01-11T10:33:23.556Z,33
2019-01-11T10:34:35.664Z,33
2019-01-11T10:35:47.952Z,33
2019-01-11T10:37:00.069Z,28
2019-01-11T10:38:12.255Z,33
2019-01-11T10:39:26.542Z,33
2019-01-11T10:40:36.850Z,33
2019-01-11T10:41:48.834Z,33
2019-01-11T10:43:01.030Z,33
2019-01-11T10:44:13.233Z,28
2019-01-11T10:45:25.511Z,28
2019-01-11T10:46:37.704Z,33
2019-01-11T10:47:49.813Z,28
2019-01-11T10:49:02.084Z,28
2019-01-11T10:50:14.201Z,28
2019-01-11T10:51:26.504Z,28
2019-01-11T10:52:38.761Z,28
2019-01-11T10:53:50.958Z,28
2019-01-11T10:55:03.058Z,33
2019-01-11T10:56:15.181Z,33
2019-01-11T10:57:27.482Z,39
2019-01-11T10:58:39.748Z,45
2019-01-11T10:59:51.852Z,45
2019-01-11T11:01:05.364Z,45
2019-01-11T11:02:16.320Z,56
2019-01-11T11:03:28.521Z,56
2019-01-11T11:04:40.749Z,56
2019-01-11T11:05:52.849Z,50
2019-01-11T11:07:05.030Z,50
2019-01-11T11:08:17.206Z,50
2019-01-11T11:09:29.411Z,50
2019-01-11T11:10:41.619Z,56
2019-01-11T11:11:53.759Z,67
2019-01-11T11:13:05.917Z,84
2019-01-11T11:14:18.122Z,101
2019-01-11T11:15:30.393Z,118
2019-01-11T11:16:42.609Z,95
2019-01-11T11:17:54.699Z,73
2019-01-11T11:19:06.900Z,67
2019-01-11T11:20:19.179Z,73
2019-01-11T11:21:31.380Z,73
2019-01-11T11:22:43.480Z,61
2019-01-11T11:23:55.768Z,61
2019-01-11T11:25:07.946Z,56
2019-01-11T11:26:20.159Z,50
2019-01-11T11:27:32.321Z,50
2019-01-11T11:28:44.651Z,56
2019-01-11T11:29:56.699Z,50
2019-01-11T11:31:08.865Z,45
2019-01-11T11:32:21.124Z,45
2019-01-11T11:33:33.252Z,45
2019-01-11T11:34:46.869Z,39
2019-01-11T11:35:57.714Z,39
2019-01-11T11:37:09.845Z,39
2019-01-11T11:38:22.032Z,39
2019-01-11T11:39:34.292Z,39
2019-01-11T11:40:46.593Z,39
2019-01-11T11:41:58.618Z,39
2019-01-11T11:43:10.830Z,45
2019-01-11T11:44:23.005Z,61
2019-01-11T11:45:35.198Z,67
2019-01-11T11:46:47.429Z,61
2019-01-11T11:47:59.672Z,61
2019-01-11T11:49:11.859Z,73
2019-01-11T11:50:23.995Z,90
2019-01-11T11:51:36.304Z,101
2019-01-11T11:52:48.468Z,95
2019-01-11T11:54:00.567Z,90
2019-01-11T11:55:12.874Z,90
2019-01-11T11:56:24.965Z,84
2019-01-11T11:57:37.182Z,67
2019-01-11T11:58:49.359Z,56
2019-01-11T12:00:01.546Z,67
2019-01-11T12:01:13.810Z,61
2019-01-11T12:02:26.742Z,67
2019-01-11T12:03:38.298Z,67
2019-01-11T12:04:50.379Z,67
2019-01-11T12:06:02.609Z,67
2019-01-11T12:07:14.817Z,84
2019-01-11T12:08:26.917Z,101
2019-01-11T12:09:39.107Z,101
2019-01-11T12:10:51.493Z,95
2019-01-11T12:12:03.584Z,78
2019-01-11T12:13:15.802Z,84
2019-01-11T12:14:27.909Z,78
2019-01-11T12:15:40.187Z,78
2019-01-11T12:16:52.285Z,73
2019-01-11T12:18:04.701Z,67
2019-01-11T12:19:16.762Z,61
2019-01-11T12:20:28.964Z,50
2019-01-11T12:21:41.085Z,33
2019-01-11T12:22:53.351Z,33
2019-01-11T12:24:05.529Z,33
2019-01-11T12:25:17.723Z,33
2019-01-11T12:26:29.948Z,33
2019-01-11T12:27:42.044Z,33
2019-01-11T12:28:54.346Z,39
2019-01-11T12:30:06.578Z,39
2019-01-11T12:31:18.651Z,39
2019-01-11T12:32:30.910Z,39
2019-01-11T12:33:43.027Z,39
2019-01-11T12:34:55.270Z,39
2019-01-11T12:36:07.520Z,39
2019-01-11T12:37:19.858Z,45
2019-01-11T12:38:31.819Z,45
2019-01-11T12:39:44.086Z,50
2019-01-11T12:40:56.367Z,50
2019-01-11T12:42:08.470Z,56
2019-01-11T12:43:20.579Z,50
2019-01-11T12:44:32.814Z,50
2019-01-11T12:45:45.032Z,50
2019-01-11T12:46:57.344Z,50
2019-01-11T12:48:09.429Z,56
2019-01-11T12:49:21.753Z,73
2019-01-11T12:50:33.783Z,67
2019-01-11T12:51:45.935Z,67
2019-01-11T12:52:58.219Z,84
2019-01-11T12:54:10.394Z,90
2019-01-11T12:55:22.517Z,95
2019-01-11T12:56:34.798Z,101
2019-01-11T12:57:46.919Z,90
2019-01-11T12:58:59.193Z,84
2019-01-11T13:00:11.295Z,90
2019-01-11T13:01:23.577Z,95
2019-01-11T13:02:35.759Z,90
2019-01-11T13:03:48.044Z,73
2019-01-11T13:05:00.245Z,61
2019-01-11T13:06:12.265Z,56
2019-01-11T13:07:24.465Z,61
2019-01-11T13:08:36.833Z,56
2019-01-11T13:09:48.840Z,56
2019-01-11T13:11:01.040Z,39
2019-01-11T13:12:13.230Z,39
2019-01-11T13:13:27.236Z,33
2019-01-11T13:14:37.771Z,33
2019-01-11T13:15:49.833Z,33
2019-01-11T13:17:02.175Z,33
2019-01-11T13:18:14.276Z,33
2019-01-11T13:19:26.405Z,39
2019-01-11T13:20:38.660Z,39
2019-01-11T13:21:50.864Z,39
2019-01-11T13:23:03.141Z,39
2019-01-11T13:24:15.242Z,45
2019-01-11T13:25:27.485Z,45
2019-01-11T13:26:39.586Z,45
2019-01-11T13:27:51.745Z,45
2019-01-11T13:29:04.101Z,45
2019-01-11T13:30:16.207Z,39
2019-01-11T13:31:28.337Z,45
2019-01-11T13:32:40.599Z,50
2019-01-11T13:33:52.718Z,45
2019-01-11T13:35:05.021Z,45
2019-01-11T13:36:17.184Z,39
2019-01-11T13:37:29.444Z,28
2019-01-11T13:38:41.594Z,28
2019-01-11T13:39:53.697Z,28
2019-01-11T13:41:06.051Z,33
2019-01-11T13:42:18.159Z,33
2019-01-11T13:43:30.270Z,28
2019-01-11T13:44:42.542Z,28
2019-01-11T13:45:54.742Z,28
2019-01-11T13:47:07.015Z,28
2019-01-11T13:48:19.133Z,28
2019-01-11T13:49:31.399Z,33
2019-01-11T13:50:43.468Z,33
2019-01-11T13:51:55.716Z,28
2019-01-11T13:53:07.993Z,28
2019-01-11T13:54:20.032Z,28
2019-01-11T13:55:32.213Z,28
2019-01-11T13:56:44.475Z,28
2019-01-11T13:57:56.602Z,33
2019-01-11T13:59:08.837Z,28
2019-01-11T14:00:20.989Z,39
2019-01-11T14:01:33.334Z,33
2019-01-11T14:02:45.374Z,39
2019-01-11T14:03:57.588Z,33
2019-01-11T14:05:09.857Z,33
2019-01-11T14:06:22.048Z,33
2019-01-11T14:07:34.146Z,33
2019-01-11T14:08:46.451Z,28
2019-01-11T14:09:58.535Z,28
2019-01-11T14:11:10.809Z,33
2019-01-11T14:12:22.923Z,33
2019-01-11T14:13:35.204Z,28
2019-01-11T14:14:47.331Z,22
2019-01-11T14:15:59.529Z,16
2019-01-11T14:17:11.917Z,16
2019-01-11T14:18:23.907Z,22
2019-01-11T14:19:36.191Z,22
2019-01-11T14:20:48.354Z,22
2019-01-11T14:22:00.560Z,22
2019-01-11T14:23:12.673Z,16
2019-01-11T14:24:25.002Z,28
2019-01-11T14:25:37.073Z,33
2019-01-11T14:26:49.313Z,39
2019-01-11T14:28:01.537Z,33
2019-01-11T14:29:13.781Z,22
2019-01-11T14:30:25.955Z,28
2019-01-11T14:31:38.018Z,28
2019-01-11T14:32:50.323Z,33
2019-01-11T14:34:02.456Z,28
2019-01-11T14:35:14.686Z,22
2019-01-11T14:36:26.802Z,16
2019-01-11T14:37:39.086Z,22
2019-01-11T14:38:51.882Z,22
2019-01-11T14:40:03.410Z,22
2019-01-11T14:41:15.669Z,22
2019-01-11T14:42:27.875Z,22
2019-01-11T14:43:40.048Z,22
2019-01-11T14:44:52.162Z,16
2019-01-11T14:46:04.531Z,11
2019-01-11T14:47:16.615Z,11
2019-01-11T14:48:28.821Z,5
2019-01-11T14:49:41.132Z,5
2019-01-11T14:50:53.210Z,5
2019-01-11T14:52:05.385Z,11
2019-01-11T14:53:17.610Z,11
2019-01-11T14:54:29.720Z,11
2019-01-11T14:55:41.984Z,11
2019-01-11T14:56:54.099Z,11
2019-01-11T14:58:06.294Z,16
2019-01-11T14:59:18.587Z,16
2019-01-11T15:00:30.749Z,11
2019-01-11T15:01:42.959Z,11
2019-01-11T15:02:55.130Z,16
2019-01-11T15:04:07.367Z,16
2019-01-11T15:05:19.554Z,16
2019-01-11T15:06:31.671Z,16
2019-01-11T15:07:43.849Z,11
2019-01-11T15:08:56.031Z,16
2019-01-11T15:10:08.236Z,16
2019-01-11T15:11:20.418Z,16
2019-01-11T15:12:32.621Z,16
2019-01-11T15:13:44.987Z,16
2019-01-11T15:14:57.096Z,11
2019-01-11T15:16:09.284Z,11
2019-01-11T15:18:33.728Z,11
2019-01-11T15:19:45.783Z,11
2019-01-11T15:20:58.063Z,5
2019-01-11T15:22:10.173Z,5
2019-01-11T15:23:22.358Z,5
2019-01-11T15:24:34.555Z,5
2019-01-11T15:25:46.864Z,5
2019-01-11T15:26:58.944Z,0
2019-01-11T15:28:11.143Z,5
2019-01-11T15:29:23.463Z,5
2019-01-11T15:30:35.662Z,11
2019-01-11T15:31:47.724Z,11
2019-01-11T15:33:00.083Z,11
2019-01-11T15:34:12.182Z,11
2019-01-11T15:35:26.731Z,5
2019-01-11T15:36:36.505Z,5
2019-01-11T15:37:48.773Z,0
2019-01-11T15:39:00.876Z,0
2019-01-11T15:40:13.081Z,0
2019-01-11T15:41:25.435Z,5
2019-01-11T15:42:37.650Z,5
2019-01-11T15:43:49.656Z,5
2019-01-11T15:45:01.851Z,5
2019-01-11T15:46:14.161Z,5
2019-01-11T15:47:26.324Z,5
2019-01-11T15:48:38.505Z,0
2019-01-11T15:49:50.706Z,0
2019-01-11T15:51:02.883Z,0
2019-01-11T15:52:15.100Z,0
2019-01-11T15:53:27.390Z,0
2019-01-11T15:54:39.470Z,0
2019-01-11T15:55:51.603Z,0
2019-01-11T15:57:03.878Z,0
2019-01-11T15:58:16.054Z,0
2019-01-11T15:59:28.200Z,0
2019-01-11T16:00:40.378Z,0
2019-01-11T16:01:52.640Z,0
2019-01-11T16:03:04.829Z,0
2019-01-11T16:04:17.044Z,0
2019-01-11T16:05:29.246Z,0
2019-01-11T16:06:41.342Z,0
2019-01-11T16:07:53.534Z,0
2019-01-11T16:09:05.870Z,0
2019-01-11T16:10:18.003Z,0
2019-01-11T16:11:30.183Z,0
2019-01-11T16:12:42.304Z,0
2019-01-11T16:13:54.494Z,0
2019-01-11T16:15:06.768Z,0
2019-01-11T16:16:18.907Z,0
2019-01-11T16:17:31.163Z,0
2019-01-11T16:18:43.275Z,0
2019-01-11T16:19:55.474Z,0
2019-01-11T16:21:07.667Z,0
2019-01-11T16:22:19.859Z,0
2019-01-11T16:23:32.119Z,0
2019-01-11T16:24:44.242Z,0
2019-01-11T16:25:56.553Z,0
2019-01-11T16:27:08.679Z,0
2019-01-11T16:28:20.908Z,0
2019-01-11T16:29:33.119Z,0
2019-01-11T16:30:45.360Z,0
2019-01-11T16:32:00.034Z,0
2019-01-11T16:33:09.687Z,0
2019-01-11T16:34:21.915Z,0
2019-01-11T16:35:34.063Z,0
2019-01-11T16:36:46.380Z,0
2019-01-11T16:38:00.444Z,0
2019-01-11T16:39:10.602Z,0
2019-01-11T16:40:22.762Z,0
2019-01-11T16:41:35.039Z,0
2019-01-11T16:42:47.249Z,0
2019-01-11T16:43:59.416Z,0
2019-01-11T16:45:11.630Z,0
2019-01-11T16:46:23.738Z,0
2019-01-11T16:47:36.359Z,0
2019-01-11T16:48:48.131Z,0
2019-01-11T16:50:00.597Z,0
2019-01-11T16:51:12.526Z,0
2019-01-11T16:52:24.803Z,0
2019-01-11T16:53:37.084Z,0
2019-01-11T16:54:49.090Z,0
2019-01-11T16:56:01.424Z,0
2019-01-11T16:57:13.548Z,0
2019-01-11T16:58:25.742Z,0
2019-01-11T16:59:37.871Z,0
2019-01-11T17:00:50.074Z,0
2019-01-11T17:02:02.301Z,0
2019-01-11T17:03:14.482Z,0
2019-01-11T17:04:26.658Z,0
2019-01-11T17:05:38.937Z,0
2019-01-11T17:06:51.106Z,0
2019-01-11T17:08:03.234Z,0
2019-01-11T17:09:15.529Z,0
2019-01-11T17:10:27.681Z,0
2019-01-11T17:11:39.882Z,0
2019-01-11T17:12:51.986Z,0
2019-01-11T17:14:04.269Z,0
2019-01-11T17:15:16.383Z,0
2019-01-11T17:16:28.580Z,0
2019-01-11T17:17:40.887Z,0
2019-01-11T17:18:53.030Z,0
2019-01-11T17:20:05.998Z,0
2019-01-11T17:21:17.455Z,0
2019-01-11T17:22:29.633Z,0
2019-01-11T17:23:41.916Z,0
2019-01-11T17:24:53.937Z,0
2019-01-11T17:26:06.222Z,0
2019-01-11T17:27:18.414Z,0
2019-01-11T17:28:30.523Z,0
2019-01-11T17:29:42.833Z,0
2019-01-11T17:30:54.910Z,0
2019-01-11T17:32:07.175Z,0
2019-01-11T17:33:19.310Z,0